WZZ1706 LICJ-LZIB
Flight info
| Callsign | WZZ1706 |
|---|---|
| Flight time | 1h 49m |
| Altitude | 36000 |
| Route | ROSAS DCT AMANO DCT GOSEB DCT XAMIT/N0428F370 DCT KUDUL DCT NEMEK DCT LAPNA DCT GBG DCT NIGSI DCT BEGLA DCT KUVEX |
| Aircraft | A320/M-SDE1E2E3FGIJ1J4RWXY/LB1 |
Departure
| Time | 2026-05-06 21:01 |
|---|---|
| Airport | Falcone–Borsellino Airport (LICJ) |
Arrival
| Time | 2026-05-06 22:51 |
|---|---|
| Airport | M. R. Štefánik Airport (LZIB) |
| Time | Latitude | Longitude | Altitude | Speed | Heading |
|---|---|---|---|---|---|
| 2026-05-06 20:37 | 38.18534 | 13.10558 | 49 ft | 0 kts | 337° |
| 2026-05-06 20:52 | 38.18521 | 13.10565 | 49 ft | 4 kts | 334° |
| 2026-05-06 20:52 | 38.18497 | 13.10582 | 48 ft | 4 kts | 324° |
| 2026-05-06 20:52 | 38.18478 | 13.10604 | 47 ft | 4 kts | 296° |
| 2026-05-06 20:53 | 38.18475 | 13.10628 | 48 ft | 1 kts | 248° |
| 2026-05-06 20:53 | 38.18476 | 13.10633 | 48 ft | 0 kts | 248° |
| 2026-05-06 20:56 | 38.18468 | 13.10604 | 50 ft | 9 kts | 250° |
| 2026-05-06 20:56 | 38.18427 | 13.10523 | 53 ft | 13 kts | 213° |
| 2026-05-06 20:57 | 38.18346 | 13.10480 | 53 ft | 12 kts | 204° |
| 2026-05-06 20:57 | 38.18297 | 13.10385 | 51 ft | 10 kts | 232° |
| 2026-05-06 20:57 | 38.18220 | 13.10355 | 53 ft | 13 kts | 212° |
| 2026-05-06 20:57 | 38.18171 | 13.10240 | 50 ft | 16 kts | 244° |
| 2026-05-06 20:58 | 38.18123 | 13.10094 | 53 ft | 19 kts | 250° |
| 2026-05-06 20:58 | 38.18071 | 13.09939 | 51 ft | 19 kts | 246° |
| 2026-05-06 20:58 | 38.18016 | 13.09772 | 50 ft | 22 kts | 247° |
| 2026-05-06 20:58 | 38.17960 | 13.09610 | 53 ft | 21 kts | 246° |
| 2026-05-06 20:59 | 38.17898 | 13.09425 | 50 ft | 23 kts | 246° |
| 2026-05-06 20:59 | 38.17832 | 13.09227 | 53 ft | 26 kts | 247° |
| 2026-05-06 20:59 | 38.17774 | 13.09052 | 53 ft | 19 kts | 246° |
| 2026-05-06 20:59 | 38.17695 | 13.08911 | 53 ft | 21 kts | 217° |
| 2026-05-06 21:00 | 38.17596 | 13.08812 | 51 ft | 10 kts | 218° |
| 2026-05-06 21:00 | 38.17530 | 13.08756 | 53 ft | 13 kts | 195° |
| 2026-05-06 21:00 | 38.17489 | 13.08823 | 53 ft | 12 kts | 67° |
| 2026-05-06 21:00 | 38.17496 | 13.08843 | 53 ft | 0 kts | 67° |
| 2026-05-06 21:01 | 38.17543 | 13.08984 | 53 ft | 53 kts | 67° |
| 2026-05-06 21:01 | 38.17782 | 13.09695 | 53 ft | 118 kts | 67° |
| 2026-05-06 21:01 | 38.18166 | 13.10852 | 132 ft | 158 kts | 67° |
| 2026-05-06 21:01 | 38.18577 | 13.12116 | 789 ft | 154 kts | 65° |
| 2026-05-06 21:02 | 38.19004 | 13.13372 | 1399 ft | 156 kts | 64° |
| 2026-05-06 21:02 | 38.19460 | 13.14675 | 1790 ft | 170 kts | 65° |
| 2026-05-06 21:02 | 38.19961 | 13.16132 | 2137 ft | 190 kts | 64° |
| 2026-05-06 21:02 | 38.20536 | 13.17722 | 2528 ft | 207 kts | 64° |
| 2026-05-06 21:03 | 38.21318 | 13.19373 | 2896 ft | 230 kts | 44° |
| 2026-05-06 21:03 | 38.22694 | 13.20550 | 3331 ft | 251 kts | 20° |
| 2026-05-06 21:03 | 38.24340 | 13.21435 | 4099 ft | 261 kts | 20° |
| 2026-05-06 21:03 | 38.26030 | 13.22327 | 5034 ft | 265 kts | 20° |
| 2026-05-06 21:04 | 38.27743 | 13.23228 | 5967 ft | 268 kts | 20° |
| 2026-05-06 21:04 | 38.29479 | 13.24140 | 6873 ft | 272 kts | 20° |
| 2026-05-06 21:04 | 38.31238 | 13.25068 | 7755 ft | 275 kts | 20° |
| 2026-05-06 21:04 | 38.33020 | 13.26012 | 8622 ft | 279 kts | 20° |
| 2026-05-06 21:05 | 38.34823 | 13.26969 | 9464 ft | 283 kts | 20° |
| 2026-05-06 21:05 | 38.36652 | 13.27944 | 10224 ft | 290 kts | 20° |
| 2026-05-06 21:05 | 38.38590 | 13.28975 | 10518 ft | 313 kts | 20° |
| 2026-05-06 21:05 | 38.40642 | 13.30069 | 11068 ft | 324 kts | 21° |
| 2026-05-06 21:06 | 38.42735 | 13.31191 | 11777 ft | 329 kts | 21° |
| 2026-05-06 21:06 | 38.44856 | 13.32329 | 12499 ft | 332 kts | 21° |
| 2026-05-06 21:06 | 38.46997 | 13.33476 | 13212 ft | 336 kts | 21° |
| 2026-05-06 21:06 | 38.49136 | 13.34620 | 13890 ft | 339 kts | 21° |
| 2026-05-06 21:07 | 38.51321 | 13.35790 | 14558 ft | 342 kts | 21° |
| 2026-05-06 21:07 | 38.53528 | 13.36972 | 15204 ft | 346 kts | 21° |
| 2026-05-06 21:07 | 38.55785 | 13.38182 | 15842 ft | 349 kts | 21° |
| 2026-05-06 21:07 | 38.58032 | 13.39385 | 16447 ft | 352 kts | 21° |
| 2026-05-06 21:08 | 38.60271 | 13.40582 | 17060 ft | 355 kts | 21° |
| 2026-05-06 21:08 | 38.62561 | 13.41807 | 17653 ft | 358 kts | 21° |
| 2026-05-06 21:08 | 38.64868 | 13.43043 | 17938 ft | 360 kts | 21° |
| 2026-05-06 21:08 | 38.67180 | 13.44284 | 17994 ft | 360 kts | 21° |
| 2026-05-06 21:09 | 38.69493 | 13.45530 | 18010 ft | 360 kts | 21° |
| 2026-05-06 21:09 | 38.71816 | 13.46786 | 18369 ft | 364 kts | 21° |
| 2026-05-06 21:09 | 38.74156 | 13.48048 | 19005 ft | 366 kts | 21° |
| 2026-05-06 21:09 | 38.76509 | 13.49317 | 19592 ft | 369 kts | 21° |
| 2026-05-06 21:10 | 38.78879 | 13.50601 | 20169 ft | 372 kts | 21° |
| 2026-05-06 21:10 | 38.81271 | 13.51895 | 20718 ft | 375 kts | 21° |
| 2026-05-06 21:10 | 38.83685 | 13.53200 | 21239 ft | 378 kts | 21° |
| 2026-05-06 21:10 | 38.86123 | 13.54489 | 21741 ft | 380 kts | 19° |
| 2026-05-06 21:11 | 38.88609 | 13.55675 | 22214 ft | 383 kts | 18° |
| 2026-05-06 21:11 | 38.91134 | 13.56796 | 22707 ft | 385 kts | 17° |
| 2026-05-06 21:11 | 38.93685 | 13.57891 | 23182 ft | 388 kts | 17° |
| 2026-05-06 21:11 | 38.96256 | 13.58992 | 23639 ft | 391 kts | 17° |
| 2026-05-06 21:12 | 38.98841 | 13.60112 | 24089 ft | 393 kts | 17° |
| 2026-05-06 21:12 | 39.01438 | 13.61257 | 24528 ft | 396 kts | 17° |
| 2026-05-06 21:12 | 39.04052 | 13.62421 | 24964 ft | 399 kts | 17° |
| 2026-05-06 21:12 | 39.06675 | 13.63602 | 25397 ft | 401 kts | 18° |
| 2026-05-06 21:13 | 39.09319 | 13.64799 | 25828 ft | 404 kts | 18° |
| 2026-05-06 21:13 | 39.11978 | 13.66003 | 26246 ft | 406 kts | 18° |
| 2026-05-06 21:13 | 39.14653 | 13.67213 | 26657 ft | 409 kts | 18° |
| 2026-05-06 21:13 | 39.17345 | 13.68428 | 27057 ft | 411 kts | 18° |
| 2026-05-06 21:14 | 39.20054 | 13.69648 | 27439 ft | 414 kts | 18° |
| 2026-05-06 21:14 | 39.22779 | 13.70877 | 27815 ft | 416 kts | 18° |
| 2026-05-06 21:14 | 39.25517 | 13.72113 | 28187 ft | 418 kts | 18° |
| 2026-05-06 21:14 | 39.28276 | 13.73357 | 28555 ft | 421 kts | 18° |
| 2026-05-06 21:15 | 39.31045 | 13.74612 | 28920 ft | 423 kts | 18° |
| 2026-05-06 21:15 | 39.33829 | 13.75874 | 29286 ft | 425 kts | 18° |
| 2026-05-06 21:15 | 39.36632 | 13.77147 | 29649 ft | 428 kts | 18° |
| 2026-05-06 21:15 | 39.39448 | 13.78428 | 30019 ft | 430 kts | 18° |
| 2026-05-06 21:16 | 39.42285 | 13.79681 | 30354 ft | 432 kts | 14° |
| 2026-05-06 21:16 | 39.45200 | 13.80645 | 30689 ft | 434 kts | 12° |
| 2026-05-06 21:16 | 39.48136 | 13.81579 | 31023 ft | 436 kts | 12° |
| 2026-05-06 21:16 | 39.51090 | 13.82516 | 31349 ft | 438 kts | 12° |
| 2026-05-06 21:17 | 39.54055 | 13.83457 | 31680 ft | 440 kts | 12° |
| 2026-05-06 21:17 | 39.57023 | 13.84400 | 32130 ft | 438 kts | 12° |
| 2026-05-06 21:17 | 39.59982 | 13.85343 | 32580 ft | 437 kts | 12° |
| 2026-05-06 21:17 | 39.62930 | 13.86287 | 33016 ft | 436 kts | 12° |
| 2026-05-06 21:18 | 39.65874 | 13.87231 | 33446 ft | 435 kts | 12° |
| 2026-05-06 21:18 | 39.68814 | 13.88174 | 33872 ft | 435 kts | 12° |
| 2026-05-06 21:18 | 39.71747 | 13.89114 | 34294 ft | 434 kts | 12° |
| 2026-05-06 21:18 | 39.74674 | 13.90050 | 34704 ft | 433 kts | 12° |
| 2026-05-06 21:19 | 39.77594 | 13.90983 | 35093 ft | 432 kts | 12° |
| 2026-05-06 21:19 | 39.80512 | 13.91915 | 35466 ft | 431 kts | 12° |
| 2026-05-06 21:19 | 39.83424 | 13.92850 | 35829 ft | 431 kts | 12° |
| 2026-05-06 21:19 | 39.86335 | 13.93789 | 35982 ft | 430 kts | 12° |
| 2026-05-06 21:20 | 39.89227 | 13.94725 | 36009 ft | 427 kts | 12° |
| 2026-05-06 21:20 | 39.94983 | 13.96590 | 36008 ft | 426 kts | 12° |
| 2026-05-06 21:21 | 40.00728 | 13.98447 | 36008 ft | 425 kts | 12° |
| 2026-05-06 21:21 | 40.06472 | 14.00303 | 36011 ft | 425 kts | 12° |
| 2026-05-06 21:22 | 40.12178 | 14.02152 | 36009 ft | 425 kts | 12° |
| 2026-05-06 21:22 | 40.17922 | 14.04005 | 36011 ft | 425 kts | 12° |
| 2026-05-06 21:23 | 40.23667 | 14.05875 | 36013 ft | 425 kts | 12° |
| 2026-05-06 21:23 | 40.29414 | 14.07757 | 36015 ft | 426 kts | 12° |
| 2026-05-06 21:24 | 40.35156 | 14.09638 | 36016 ft | 425 kts | 12° |
| 2026-05-06 21:24 | 40.40902 | 14.11522 | 36017 ft | 425 kts | 12° |
| 2026-05-06 21:25 | 40.46645 | 14.13397 | 36017 ft | 425 kts | 12° |
| 2026-05-06 21:25 | 40.52390 | 14.15283 | 36017 ft | 425 kts | 12° |
| 2026-05-06 21:26 | 40.58132 | 14.17175 | 36017 ft | 425 kts | 12° |
| 2026-05-06 21:26 | 40.63875 | 14.19064 | 36017 ft | 425 kts | 12° |
| 2026-05-06 21:27 | 40.69615 | 14.20958 | 36017 ft | 425 kts | 12° |
| 2026-05-06 21:27 | 40.75360 | 14.22860 | 36018 ft | 425 kts | 12° |
| 2026-05-06 21:28 | 40.81102 | 14.24758 | 36018 ft | 425 kts | 12° |
| 2026-05-06 21:28 | 40.86844 | 14.26660 | 36018 ft | 425 kts | 12° |
| 2026-05-06 21:29 | 40.92587 | 14.28572 | 36017 ft | 426 kts | 12° |
| 2026-05-06 21:29 | 40.98330 | 14.30487 | 36018 ft | 426 kts | 12° |
| 2026-05-06 21:30 | 41.04077 | 14.32402 | 36019 ft | 426 kts | 12° |
| 2026-05-06 21:30 | 41.09821 | 14.34325 | 36019 ft | 426 kts | 13° |
| 2026-05-06 21:31 | 41.15569 | 14.36260 | 36015 ft | 426 kts | 13° |
| 2026-05-06 21:31 | 41.21318 | 14.38191 | 36017 ft | 426 kts | 12° |
| 2026-05-06 21:32 | 41.27073 | 14.40121 | 36019 ft | 426 kts | 12° |
| 2026-05-06 21:32 | 41.35710 | 14.43028 | 36011 ft | 427 kts | 12° |
| 2026-05-06 21:33 | 41.41487 | 14.44971 | 35995 ft | 429 kts | 12° |
| 2026-05-06 21:33 | 41.47291 | 14.46925 | 35994 ft | 431 kts | 12° |
| 2026-05-06 21:34 | 41.53135 | 14.48628 | 36014 ft | 429 kts | 6° |
| 2026-05-06 21:34 | 41.59057 | 14.49641 | 36018 ft | 429 kts | 6° |
| 2026-05-06 21:35 | 41.64978 | 14.50646 | 36020 ft | 429 kts | 6° |
| 2026-05-06 21:35 | 41.70899 | 14.51655 | 36023 ft | 429 kts | 6° |
| 2026-05-06 21:36 | 41.76783 | 14.52661 | 36022 ft | 429 kts | 6° |
| 2026-05-06 21:36 | 41.82707 | 14.53677 | 36026 ft | 429 kts | 6° |
| 2026-05-06 21:37 | 41.88625 | 14.54691 | 36025 ft | 429 kts | 6° |
| 2026-05-06 21:37 | 41.94536 | 14.55713 | 36027 ft | 428 kts | 6° |
| 2026-05-06 21:38 | 42.00446 | 14.56733 | 36026 ft | 428 kts | 6° |
| 2026-05-06 21:38 | 42.06349 | 14.57752 | 36029 ft | 427 kts | 6° |
| 2026-05-06 21:39 | 42.12238 | 14.58775 | 36030 ft | 426 kts | 6° |
| 2026-05-06 21:39 | 42.17166 | 14.59628 | 36030 ft | 426 kts | 6° |
| 2026-05-06 21:40 | 42.23002 | 14.60634 | 36031 ft | 425 kts | 6° |
| 2026-05-06 21:40 | 42.28909 | 14.61658 | 36029 ft | 425 kts | 6° |
| 2026-05-06 21:41 | 42.34769 | 14.62687 | 36029 ft | 425 kts | 6° |
| 2026-05-06 21:41 | 42.40586 | 14.63708 | 36028 ft | 424 kts | 6° |
| 2026-05-06 21:42 | 42.46446 | 14.64741 | 36027 ft | 424 kts | 6° |
| 2026-05-06 21:42 | 42.52343 | 14.65771 | 36026 ft | 425 kts | 6° |
| 2026-05-06 21:43 | 42.58166 | 14.66789 | 36027 ft | 425 kts | 6° |
| 2026-05-06 21:43 | 42.64027 | 14.67816 | 36028 ft | 425 kts | 6° |
| 2026-05-06 21:44 | 42.69888 | 14.68852 | 36029 ft | 425 kts | 6° |
| 2026-05-06 21:44 | 42.75746 | 14.69894 | 36028 ft | 425 kts | 6° |
| 2026-05-06 21:45 | 42.81605 | 14.70925 | 36028 ft | 424 kts | 6° |
| 2026-05-06 21:45 | 42.87461 | 14.71956 | 36027 ft | 424 kts | 6° |
| 2026-05-06 21:46 | 42.93314 | 14.72997 | 36026 ft | 424 kts | 6° |
| 2026-05-06 21:46 | 42.99165 | 14.74037 | 36024 ft | 424 kts | 6° |
| 2026-05-06 21:47 | 43.05013 | 14.75084 | 36023 ft | 424 kts | 6° |
| 2026-05-06 21:47 | 43.10859 | 14.76138 | 36020 ft | 424 kts | 6° |
| 2026-05-06 21:48 | 43.16705 | 14.77176 | 36021 ft | 424 kts | 6° |
| 2026-05-06 21:48 | 43.22555 | 14.78217 | 36054 ft | 425 kts | 6° |
| 2026-05-06 21:49 | 43.25491 | 14.78745 | 36349 ft | 426 kts | 6° |
| 2026-05-06 21:49 | 43.28426 | 14.79273 | 36673 ft | 426 kts | 6° |
| 2026-05-06 21:49 | 43.31364 | 14.79803 | 36949 ft | 426 kts | 6° |
| 2026-05-06 21:49 | 43.34307 | 14.80348 | 37009 ft | 427 kts | 6° |
| 2026-05-06 21:50 | 43.40184 | 14.81488 | 37009 ft | 426 kts | 6° |
| 2026-05-06 21:50 | 43.46054 | 14.82649 | 37009 ft | 426 kts | 6° |
| 2026-05-06 21:51 | 43.51928 | 14.83792 | 37009 ft | 426 kts | 6° |
| 2026-05-06 21:51 | 43.57800 | 14.84926 | 37009 ft | 426 kts | 6° |
| 2026-05-06 21:52 | 43.63676 | 14.86070 | 37014 ft | 427 kts | 6° |
| 2026-05-06 21:52 | 43.69553 | 14.87214 | 37018 ft | 427 kts | 6° |
| 2026-05-06 21:53 | 43.75432 | 14.88357 | 37020 ft | 427 kts | 6° |
| 2026-05-06 21:53 | 43.81278 | 14.89498 | 37022 ft | 427 kts | 6° |
| 2026-05-06 21:54 | 43.87155 | 14.90652 | 37022 ft | 427 kts | 6° |
| 2026-05-06 21:54 | 43.93038 | 14.91808 | 37022 ft | 427 kts | 6° |
| 2026-05-06 21:55 | 43.98914 | 14.92963 | 37022 ft | 427 kts | 6° |
| 2026-05-06 21:55 | 44.04788 | 14.94120 | 37021 ft | 426 kts | 6° |
| 2026-05-06 21:56 | 44.10666 | 14.95281 | 37019 ft | 426 kts | 6° |
| 2026-05-06 21:56 | 44.16538 | 14.96449 | 37019 ft | 426 kts | 6° |
| 2026-05-06 21:57 | 44.22413 | 14.97616 | 37019 ft | 426 kts | 6° |
| 2026-05-06 21:57 | 44.28288 | 14.98785 | 37019 ft | 426 kts | 6° |
| 2026-05-06 21:58 | 44.34163 | 14.99958 | 37020 ft | 427 kts | 6° |
| 2026-05-06 21:58 | 44.40043 | 15.01127 | 37021 ft | 427 kts | 6° |
| 2026-05-06 21:59 | 44.45922 | 15.02298 | 37021 ft | 427 kts | 6° |
| 2026-05-06 21:59 | 44.51804 | 15.03480 | 37022 ft | 427 kts | 6° |
| 2026-05-06 22:00 | 44.57681 | 15.04658 | 37019 ft | 427 kts | 6° |
| 2026-05-06 22:00 | 44.63581 | 15.05845 | 36992 ft | 429 kts | 6° |
| 2026-05-06 22:01 | 44.69504 | 15.07079 | 36989 ft | 432 kts | 8° |
| 2026-05-06 22:01 | 44.75431 | 15.08574 | 36994 ft | 433 kts | 9° |
| 2026-05-06 22:02 | 44.81354 | 15.10160 | 37004 ft | 434 kts | 9° |
| 2026-05-06 22:02 | 44.87289 | 15.11700 | 37021 ft | 433 kts | 8° |
| 2026-05-06 22:03 | 44.93219 | 15.13208 | 37029 ft | 432 kts | 8° |
| 2026-05-06 22:03 | 44.99135 | 15.14716 | 37030 ft | 432 kts | 8° |
| 2026-05-06 22:04 | 45.05051 | 15.16225 | 37030 ft | 432 kts | 8° |
| 2026-05-06 22:04 | 45.10961 | 15.17743 | 37027 ft | 432 kts | 8° |
| 2026-05-06 22:05 | 45.16831 | 15.19257 | 37023 ft | 432 kts | 8° |
| 2026-05-06 22:05 | 45.22777 | 15.20796 | 37022 ft | 431 kts | 8° |
| 2026-05-06 22:06 | 45.28676 | 15.22320 | 37028 ft | 431 kts | 8° |
| 2026-05-06 22:06 | 45.34530 | 15.23835 | 37027 ft | 430 kts | 8° |
| 2026-05-06 22:07 | 45.40422 | 15.25360 | 37030 ft | 430 kts | 8° |
| 2026-05-06 22:07 | 45.46348 | 15.26898 | 37030 ft | 430 kts | 8° |
| 2026-05-06 22:08 | 45.52186 | 15.28412 | 37028 ft | 429 kts | 8° |
| 2026-05-06 22:08 | 45.58057 | 15.29937 | 37029 ft | 429 kts | 8° |
| 2026-05-06 22:09 | 45.63940 | 15.31344 | 37028 ft | 428 kts | 7° |
| 2026-05-06 22:09 | 45.69825 | 15.32648 | 37024 ft | 428 kts | 7° |
| 2026-05-06 22:10 | 45.75713 | 15.33960 | 37009 ft | 429 kts | 7° |
| 2026-05-06 22:10 | 45.81613 | 15.35301 | 37008 ft | 430 kts | 7° |
| 2026-05-06 22:11 | 45.87515 | 15.36662 | 37022 ft | 429 kts | 7° |
| 2026-05-06 22:11 | 45.93407 | 15.38024 | 37025 ft | 429 kts | 7° |
| 2026-05-06 22:12 | 45.99288 | 15.39389 | 37023 ft | 428 kts | 7° |
| 2026-05-06 22:12 | 46.05176 | 15.40751 | 37020 ft | 428 kts | 7° |
| 2026-05-06 22:13 | 46.11063 | 15.42108 | 37007 ft | 429 kts | 7° |
| 2026-05-06 22:13 | 46.16956 | 15.43471 | 37011 ft | 429 kts | 7° |
| 2026-05-06 22:14 | 46.22850 | 15.44844 | 37017 ft | 429 kts | 7° |
| 2026-05-06 22:14 | 46.28742 | 15.46223 | 37019 ft | 429 kts | 7° |
| 2026-05-06 22:15 | 46.34627 | 15.47596 | 37017 ft | 428 kts | 7° |
| 2026-05-06 22:15 | 46.40510 | 15.48965 | 37016 ft | 428 kts | 7° |
| 2026-05-06 22:16 | 46.46395 | 15.50352 | 37002 ft | 429 kts | 7° |
| 2026-05-06 22:16 | 46.52278 | 15.51888 | 36993 ft | 431 kts | 14° |
| 2026-05-06 22:17 | 46.57773 | 15.55382 | 37011 ft | 433 kts | 27° |
| 2026-05-06 22:17 | 46.63062 | 15.59589 | 37014 ft | 433 kts | 27° |
| 2026-05-06 22:18 | 46.68354 | 15.63780 | 37012 ft | 433 kts | 27° |
| 2026-05-06 22:18 | 46.73650 | 15.67991 | 37009 ft | 434 kts | 27° |
| 2026-05-06 22:19 | 46.78946 | 15.72218 | 37010 ft | 434 kts | 27° |
| 2026-05-06 22:19 | 46.84248 | 15.76457 | 37010 ft | 435 kts | 27° |
| 2026-05-06 22:20 | 46.89625 | 15.80459 | 37011 ft | 433 kts | 18° |
| 2026-05-06 22:20 | 46.95334 | 15.83257 | 37012 ft | 433 kts | 17° |
| 2026-05-06 22:21 | 47.01053 | 15.86031 | 37013 ft | 433 kts | 17° |
| 2026-05-06 22:21 | 47.06733 | 15.88799 | 36656 ft | 435 kts | 17° |
| 2026-05-06 22:22 | 47.09650 | 15.90217 | 35575 ft | 447 kts | 17° |
| 2026-05-06 22:22 | 47.12614 | 15.91658 | 34858 ft | 449 kts | 17° |
| 2026-05-06 22:22 | 47.15573 | 15.93104 | 34268 ft | 448 kts | 17° |
| 2026-05-06 22:22 | 47.18522 | 15.94552 | 33721 ft | 445 kts | 17° |
| 2026-05-06 22:23 | 47.21430 | 15.95986 | 32925 ft | 437 kts | 17° |
| 2026-05-06 22:23 | 47.24294 | 15.97397 | 32000 ft | 431 kts | 17° |
| 2026-05-06 22:23 | 47.27121 | 15.98786 | 31089 ft | 426 kts | 17° |
| 2026-05-06 22:23 | 47.29913 | 16.00156 | 30173 ft | 419 kts | 17° |
| 2026-05-06 22:24 | 47.32660 | 16.01511 | 29259 ft | 414 kts | 18° |
| 2026-05-06 22:24 | 47.35247 | 16.03304 | 28352 ft | 410 kts | 31° |
| 2026-05-06 22:24 | 47.37485 | 16.05862 | 27447 ft | 406 kts | 43° |
| 2026-05-06 22:24 | 47.39286 | 16.09039 | 26562 ft | 402 kts | 56° |
| 2026-05-06 22:25 | 47.40791 | 16.12489 | 25654 ft | 398 kts | 56° |
| 2026-05-06 22:25 | 47.42279 | 16.15914 | 24788 ft | 394 kts | 56° |
| 2026-05-06 22:25 | 47.43748 | 16.19297 | 23929 ft | 389 kts | 56° |
| 2026-05-06 22:25 | 47.44712 | 16.21518 | 23371 ft | 386 kts | 56° |
| 2026-05-06 22:26 | 47.46151 | 16.24834 | 22512 ft | 381 kts | 56° |
| 2026-05-06 22:26 | 47.47572 | 16.28107 | 21694 ft | 376 kts | 56° |
| 2026-05-06 22:26 | 47.48962 | 16.31310 | 21278 ft | 365 kts | 56° |
| 2026-05-06 22:26 | 47.50323 | 16.34459 | 20849 ft | 362 kts | 56° |
| 2026-05-06 22:27 | 47.51670 | 16.37590 | 20410 ft | 359 kts | 56° |
| 2026-05-06 22:27 | 47.53005 | 16.40693 | 19979 ft | 356 kts | 56° |
| 2026-05-06 22:27 | 47.54332 | 16.43770 | 19552 ft | 354 kts | 56° |
| 2026-05-06 22:27 | 47.55651 | 16.46827 | 19124 ft | 351 kts | 56° |
| 2026-05-06 22:28 | 47.56957 | 16.49862 | 18695 ft | 348 kts | 56° |
| 2026-05-06 22:28 | 47.58248 | 16.52877 | 18271 ft | 345 kts | 56° |
| 2026-05-06 22:28 | 47.59527 | 16.55868 | 17860 ft | 343 kts | 56° |
| 2026-05-06 22:28 | 47.60797 | 16.58839 | 17445 ft | 340 kts | 56° |
| 2026-05-06 22:29 | 47.62060 | 16.61793 | 17032 ft | 338 kts | 56° |
| 2026-05-06 22:29 | 47.63312 | 16.64721 | 16623 ft | 336 kts | 56° |
| 2026-05-06 22:29 | 47.64558 | 16.67638 | 16216 ft | 333 kts | 56° |
| 2026-05-06 22:29 | 47.65792 | 16.70530 | 15813 ft | 331 kts | 56° |
| 2026-05-06 22:30 | 47.67021 | 16.73410 | 15418 ft | 329 kts | 56° |
| 2026-05-06 22:30 | 47.68240 | 16.76277 | 15017 ft | 327 kts | 57° |
| 2026-05-06 22:30 | 47.69450 | 16.79127 | 14632 ft | 326 kts | 57° |
| 2026-05-06 22:30 | 47.70653 | 16.81970 | 14227 ft | 324 kts | 57° |
| 2026-05-06 22:31 | 47.71849 | 16.84795 | 13832 ft | 322 kts | 57° |
| 2026-05-06 22:31 | 47.73037 | 16.87606 | 13439 ft | 321 kts | 57° |
| 2026-05-06 22:31 | 47.74221 | 16.90402 | 13057 ft | 319 kts | 57° |
| 2026-05-06 22:31 | 47.75402 | 16.93186 | 12661 ft | 318 kts | 57° |
| 2026-05-06 22:32 | 47.76577 | 16.95958 | 12284 ft | 316 kts | 57° |
| 2026-05-06 22:32 | 47.77744 | 16.98721 | 11901 ft | 315 kts | 57° |
| 2026-05-06 22:32 | 47.78904 | 17.01475 | 11516 ft | 313 kts | 57° |
| 2026-05-06 22:32 | 47.80054 | 17.04214 | 11134 ft | 312 kts | 57° |
| 2026-05-06 22:33 | 47.81200 | 17.06947 | 10748 ft | 311 kts | 57° |
| 2026-05-06 22:33 | 47.82327 | 17.09628 | 10461 ft | 306 kts | 57° |
| 2026-05-06 22:33 | 47.83316 | 17.12370 | 10265 ft | 298 kts | 67° |
| 2026-05-06 22:33 | 47.84026 | 17.15241 | 9670 ft | 295 kts | 69° |
| 2026-05-06 22:34 | 47.84711 | 17.18096 | 9175 ft | 292 kts | 70° |
| 2026-05-06 22:34 | 47.85392 | 17.20948 | 8792 ft | 292 kts | 70° |
| 2026-05-06 22:34 | 47.86072 | 17.23799 | 8450 ft | 291 kts | 70° |
| 2026-05-06 22:34 | 47.86749 | 17.26630 | 8074 ft | 289 kts | 69° |
| 2026-05-06 22:35 | 47.87409 | 17.29392 | 7708 ft | 278 kts | 69° |
| 2026-05-06 22:35 | 47.88043 | 17.32048 | 7367 ft | 267 kts | 69° |
| 2026-05-06 22:35 | 47.88655 | 17.34606 | 7035 ft | 258 kts | 69° |
| 2026-05-06 22:35 | 47.89256 | 17.37126 | 6711 ft | 258 kts | 69° |
| 2026-05-06 22:36 | 47.89869 | 17.39636 | 6390 ft | 257 kts | 65° |
| 2026-05-06 22:36 | 47.90775 | 17.41903 | 6063 ft | 254 kts | 49° |
| 2026-05-06 22:36 | 47.92089 | 17.43780 | 5888 ft | 267 kts | 33° |
| 2026-05-06 22:36 | 47.93705 | 17.45117 | 5301 ft | 267 kts | 17° |
| 2026-05-06 22:37 | 47.95468 | 17.45947 | 4717 ft | 264 kts | 14° |
| 2026-05-06 22:37 | 47.97214 | 17.46758 | 4231 ft | 262 kts | 15° |
| 2026-05-06 22:37 | 47.98944 | 17.47570 | 3753 ft | 260 kts | 15° |
| 2026-05-06 22:37 | 48.00675 | 17.48389 | 3285 ft | 264 kts | 15° |
| 2026-05-06 22:38 | 48.02424 | 17.49222 | 2987 ft | 262 kts | 15° |
| 2026-05-06 22:38 | 48.04136 | 17.50040 | 2833 ft | 254 kts | 15° |
| 2026-05-06 22:38 | 48.05790 | 17.50829 | 2711 ft | 245 kts | 15° |
| 2026-05-06 22:38 | 48.07382 | 17.51591 | 2578 ft | 236 kts | 15° |
| 2026-05-06 22:39 | 48.08922 | 17.52286 | 2475 ft | 227 kts | 9° |
| 2026-05-06 22:39 | 48.10454 | 17.52784 | 2406 ft | 224 kts | 9° |
| 2026-05-06 22:39 | 48.11980 | 17.53288 | 2407 ft | 225 kts | 9° |
| 2026-05-06 22:39 | 48.13508 | 17.53797 | 2409 ft | 225 kts | 9° |
| 2026-05-06 22:40 | 48.15037 | 17.54311 | 2407 ft | 225 kts | 9° |
| 2026-05-06 22:40 | 48.16563 | 17.54825 | 2408 ft | 225 kts | 9° |
| 2026-05-06 22:40 | 48.18092 | 17.55342 | 2407 ft | 225 kts | 9° |
| 2026-05-06 22:40 | 48.19619 | 17.55856 | 2408 ft | 225 kts | 9° |
| 2026-05-06 22:41 | 48.22677 | 17.56885 | 2407 ft | 225 kts | 9° |
| 2026-05-06 22:41 | 48.24207 | 17.57403 | 2407 ft | 225 kts | 9° |
| 2026-05-06 22:41 | 48.25735 | 17.57919 | 2408 ft | 225 kts | 9° |
| 2026-05-06 22:42 | 48.27263 | 17.58435 | 2408 ft | 225 kts | 9° |
| 2026-05-06 22:42 | 48.28792 | 17.58952 | 2409 ft | 225 kts | 9° |
| 2026-05-06 22:42 | 48.30328 | 17.59321 | 2407 ft | 221 kts | 356° |
| 2026-05-06 22:42 | 48.31770 | 17.58952 | 2408 ft | 202 kts | 336° |
| 2026-05-06 22:43 | 48.32954 | 17.57970 | 2405 ft | 192 kts | 318° |
| 2026-05-06 22:43 | 48.33901 | 17.56577 | 2406 ft | 190 kts | 311° |
| 2026-05-06 22:43 | 48.34821 | 17.55145 | 2407 ft | 190 kts | 311° |
| 2026-05-06 22:43 | 48.35601 | 17.53565 | 2407 ft | 188 kts | 294° |
| 2026-05-06 22:44 | 48.35970 | 17.51696 | 2408 ft | 187 kts | 275° |
| 2026-05-06 22:44 | 48.35885 | 17.49759 | 2408 ft | 187 kts | 256° |
| 2026-05-06 22:44 | 48.35352 | 17.47978 | 2407 ft | 189 kts | 236° |
| 2026-05-06 22:44 | 48.34453 | 17.46530 | 2408 ft | 190 kts | 226° |
| 2026-05-06 22:45 | 48.33512 | 17.45164 | 2408 ft | 191 kts | 226° |
| 2026-05-06 22:45 | 48.32548 | 17.43762 | 2408 ft | 191 kts | 226° |
| 2026-05-06 22:45 | 48.31595 | 17.42378 | 2407 ft | 191 kts | 226° |
| 2026-05-06 22:45 | 48.30642 | 17.40993 | 2409 ft | 191 kts | 226° |
| 2026-05-06 22:46 | 48.29705 | 17.39633 | 2408 ft | 186 kts | 226° |
| 2026-05-06 22:46 | 48.28793 | 17.38311 | 2406 ft | 180 kts | 226° |
| 2026-05-06 22:46 | 48.27899 | 17.37015 | 2409 ft | 178 kts | 226° |
| 2026-05-06 22:46 | 48.27046 | 17.35781 | 2418 ft | 160 kts | 227° |
| 2026-05-06 22:47 | 48.26296 | 17.34696 | 2400 ft | 143 kts | 227° |
| 2026-05-06 22:47 | 48.25604 | 17.33694 | 2420 ft | 132 kts | 227° |
| 2026-05-06 22:47 | 48.24953 | 17.32752 | 2417 ft | 128 kts | 227° |
| 2026-05-06 22:47 | 48.24311 | 17.31820 | 2305 ft | 128 kts | 227° |
| 2026-05-06 22:48 | 48.23676 | 17.30897 | 1988 ft | 126 kts | 227° |
| 2026-05-06 22:48 | 48.23054 | 17.29986 | 1763 ft | 125 kts | 227° |
| 2026-05-06 22:48 | 48.22422 | 17.29095 | 1670 ft | 124 kts | 227° |
| 2026-05-06 22:48 | 48.21796 | 17.28192 | 1526 ft | 125 kts | 228° |
| 2026-05-06 22:49 | 48.21174 | 17.27283 | 1327 ft | 124 kts | 228° |
| 2026-05-06 22:49 | 48.20551 | 17.26383 | 1189 ft | 125 kts | 227° |
| 2026-05-06 22:49 | 48.19925 | 17.25483 | 989 ft | 125 kts | 227° |
| 2026-05-06 22:49 | 48.19302 | 17.24586 | 817 ft | 124 kts | 227° |
| 2026-05-06 22:50 | 48.18679 | 17.23681 | 690 ft | 125 kts | 226° |
| 2026-05-06 22:50 | 48.18045 | 17.22782 | 508 ft | 125 kts | 228° |
| 2026-05-06 22:50 | 48.17458 | 17.21916 | 428 ft | 93 kts | 223° |
| 2026-05-06 22:50 | 48.17140 | 17.21466 | 427 ft | 55 kts | 225° |
| 2026-05-06 22:51 | 48.16879 | 17.21093 | 427 ft | 39 kts | 224° |
| 2026-05-06 22:51 | 48.16688 | 17.20817 | 425 ft | 37 kts | 224° |
| 2026-05-06 22:51 | 48.16564 | 17.20624 | 429 ft | 7 kts | 264° |
| 2026-05-06 22:51 | 48.16597 | 17.20536 | 426 ft | 12 kts | 315° |
| 2026-05-06 22:52 | 48.16665 | 17.20430 | 424 ft | 16 kts | 313° |
| 2026-05-06 22:52 | 48.16753 | 17.20301 | 427 ft | 20 kts | 316° |
| 2026-05-06 22:52 | 48.16846 | 17.20163 | 426 ft | 15 kts | 317° |
| 2026-05-06 22:52 | 48.16902 | 17.20194 | 423 ft | 7 kts | 43° |
| 2026-05-06 22:53 | 48.16942 | 17.20220 | 419 ft | 6 kts | 323° |
| 2026-05-06 22:53 | 48.16974 | 17.20174 | 427 ft | 0 kts | 313° |
| 2026-05-06 22:53 | 48.16976 | 17.20171 | 427 ft | 0 kts | 314° |